< < Back
Terminal Aerodrome Forecast


Current Version              Previous Versions:   1  2  3  4  5  6  7  8  9  

Terminal Aerodrome Forecast

174
FTUS44 KMOB 271148
TAFMOB
TAF
KMOB 271148Z 2712/2812 19003KT P6SM FEW050 SCT250
     FM271400 20010KT P6SM VCSH SCT025 BKN050
      TEMPO 2717/2721 3SM TSRA OVC025CB
     FM272300 20004KT P6SM FEW025 SCT050=



Latest METAR

411
SAUS80 KWBC 281200 RRA
MTRMOB
METAR KMOB 281156Z 00000KT 10SM FEW025 FEW080 25/23 A3006 RMK AO2 SLP175
70001 T02500233 10250 20228 51005


USA.gov is the U.S. government's official web portal to all federal, state and local government web resources and services.